Time;durP1;ratioP1;P1;durP2;ratioP2;P2;SDS_P1;SDS_P2;PMS_P1;PMS_P2;Temp;Humidity;BMP_temperature;BMP_pressure;BME280_temperature;BME280_humidity;BME280_pressure;Samples;Min_cycle;Max_cycle;Signal;HPM_P1;HPM_P2
2022/03/13 00:01:52;;;;;;;23.63;14.35;;;10.20;99.90;;;;;;5034534;28;20060;-66
2022/03/13 00:04:18;;;;;;;18.98;13.68;;;10.20;99.90;;;;;;5036046;28;20461;-66
2022/03/13 00:06:44;;;;;;;19.30;14.90;;;10.10;99.90;;;;;;5036531;28;20049;-66
2022/03/13 00:09:13;;;;;;;21.05;13.90;;;10.10;99.90;;;;;;5033192;28;20049;-66
2022/03/13 00:11:40;;;;;;;23.23;14.35;;;10.10;99.90;;;;;;5032908;28;20484;-66
2022/03/13 00:14:05;;;;;;;20.23;16.02;;;10.00;99.90;;;;;;5037421;28;20429;-66
2022/03/13 00:16:31;;;;;;;19.33;13.68;;;10.00;99.90;;;;;;5041256;28;20063;-66
2022/03/13 00:18:59;;;;;;;22.90;14.45;;;10.00;99.90;;;;;;5039372;28;20052;-66
2022/03/13 00:21:25;;;;;;;22.25;14.93;;;10.00;99.90;;;;;;5034483;28;20041;-66
2022/03/13 00:23:51;;;;;;;19.65;14.05;;;10.00;99.90;;;;;;5034113;28;20048;-65
2022/03/13 00:26:17;;;;;;;20.08;15.75;;;10.00;99.90;;;;;;5030216;28;20037;-66
2022/03/13 00:28:44;;;;;;;19.58;15.27;;;9.90;99.90;;;;;;5040789;28;20048;-66
2022/03/13 00:31:10;;;;;;;19.33;14.00;;;10.00;99.90;;;;;;5032577;28;20068;-66
2022/03/13 00:33:36;;;;;;;19.73;15.07;;;10.00;99.90;;;;;;5034110;28;20044;-65
2022/03/13 00:36:01;;;;;;;18.67;14.65;;;9.90;99.90;;;;;;5044578;28;20080;-66
2022/03/13 00:38:27;;;;;;;18.25;14.77;;;9.90;99.90;;;;;;5034870;28;20474;-66
2022/03/13 00:40:55;;;;;;;22.60;15.43;;;9.90;99.90;;;;;;5030879;28;20151;-66
2022/03/13 00:43:22;;;;;;;20.20;14.57;;;9.90;99.90;;;;;;5035539;28;20033;-66
2022/03/13 00:45:48;;;;;;;16.75;14.05;;;9.80;99.90;;;;;;5034691;28;20494;-66
2022/03/13 00:48:14;;;;;;;19.65;15.02;;;9.90;99.90;;;;;;5039104;28;20040;-66
2022/03/13 00:50:40;;;;;;;22.27;14.23;;;9.80;99.90;;;;;;5037125;28;20047;-66
2022/03/13 00:53:06;;;;;;;24.50;15.80;;;9.80;99.90;;;;;;5037815;28;20257;-66
2022/03/13 00:55:32;;;;;;;21.88;15.07;;;9.80;99.90;;;;;;5030368;28;20045;-66
2022/03/13 00:57:58;;;;;;;19.50;13.10;;;9.80;99.90;;;;;;5036133;28;20037;-66
2022/03/13 01:00:24;;;;;;;21.67;15.55;;;9.90;99.90;;;;;;5037659;28;20551;-66
2022/03/13 01:02:50;;;;;;;20.45;13.88;;;9.80;99.90;;;;;;5036987;28;20037;-66
2022/03/13 01:05:23;;;;;;;19.85;14.90;;;9.90;99.90;;;;;;5033131;28;20484;-66
2022/03/13 01:07:50;;;;;;;;;;;9.80;99.90;;;;;;5032915;28;20475;-66
2022/03/13 01:10:15;;;;;;;17.80;13.55;;;9.80;99.90;;;;;;5042911;28;19966;-66
2022/03/13 01:12:41;;;;;;;20.05;15.20;;;9.90;99.90;;;;;;5039143;28;20053;-65
2022/03/13 01:15:08;;;;;;;22.55;14.07;;;9.90;99.90;;;;;;5033078;28;20042;-66
2022/03/13 01:17:34;;;;;;;20.58;15.35;;;9.80;99.90;;;;;;5033298;28;20576;-65
2022/03/13 01:20:01;;;;;;;19.90;14.25;;;9.90;99.90;;;;;;5026809;28;20049;-65
2022/03/13 01:22:27;;;;;;;19.42;14.25;;;9.80;99.90;;;;;;5036147;28;20075;-65
2022/03/13 01:24:53;;;;;;;18.50;14.35;;;9.90;99.90;;;;;;5033966;28;20044;-65
2022/03/13 01:27:20;;;;;;;18.17;14.50;;;9.90;99.90;;;;;;5038697;28;20124;-66
2022/03/13 01:29:46;;;;;;;22.73;15.55;;;9.80;99.90;;;;;;5028226;28;20064;-65
2022/03/13 01:32:13;;;;;;;20.35;14.43;;;9.80;99.90;;;;;;5034133;28;20400;-65
2022/03/13 01:34:46;;;;;;;19.98;15.88;;;9.80;99.90;;;;;;5036017;28;20051;-66
2022/03/13 01:37:15;;;;;;;27.67;15.77;;;9.80;99.90;;;;;;5033209;28;20068;-66
2022/03/13 01:39:42;;;;;;;22.35;14.68;;;9.80;99.90;;;;;;5041980;28;20071;-66
2022/03/13 01:42:07;;;;;;;25.58;15.48;;;9.80;99.90;;;;;;5035929;28;20481;-66
2022/03/13 01:44:33;;;;;;;18.60;14.32;;;9.80;99.90;;;;;;5040066;28;20041;-66
2022/03/13 01:47:01;;;;;;;21.95;14.27;;;9.90;99.90;;;;;;5037685;28;20095;-66
2022/03/13 01:49:27;;;;;;;26.73;16.17;;;9.80;99.90;;;;;;5028161;28;20050;-66
2022/03/13 01:51:52;;;;;;;19.02;14.38;;;9.80;99.90;;;;;;5032253;28;20059;-66
2022/03/13 01:54:18;;;;;;;22.05;14.63;;;9.80;99.90;;;;;;5039336;28;20408;-66
2022/03/13 01:56:44;;;;;;;19.25;14.02;;;9.80;99.90;;;;;;5040299;28;20116;-66
2022/03/13 01:59:13;;;;;;;20.77;15.65;;;9.80;99.90;;;;;;5033651;28;20045;-66
2022/03/13 02:01:39;;;;;;;19.95;14.60;;;9.80;99.90;;;;;;5035923;28;20068;-66
2022/03/13 02:04:05;;;;;;;21.02;14.55;;;9.80;99.90;;;;;;5040970;28;20139;-66
2022/03/13 02:06:31;;;;;;;18.17;14.38;;;9.70;99.90;;;;;;5034340;28;20067;-66
2022/03/13 02:08:56;;;;;;;20.90;15.32;;;9.70;99.90;;;;;;5032796;28;20050;-66
2022/03/13 02:11:24;;;;;;;20.35;14.77;;;9.70;99.90;;;;;;5031439;28;20063;-66
2022/03/13 02:13:53;;;;;;;20.00;13.73;;;9.70;99.90;;;;;;5030048;28;20046;-66
2022/03/13 02:16:20;;;;;;;21.70;16.50;;;9.70;99.90;;;;;;5025622;28;20049;-66
2022/03/13 02:18:52;;;;;;;19.83;15.55;;;9.80;99.90;;;;;;5029151;28;20124;-66
2022/03/13 02:21:19;;;;;;;24.95;14.35;;;9.70;99.90;;;;;;5028633;28;20045;-65
2022/03/13 02:23:44;;;;;;;22.73;15.15;;;9.70;99.90;;;;;;5040108;28;20045;-66
2022/03/13 02:26:11;;;;;;;19.17;14.95;;;9.70;99.90;;;;;;5033846;28;20050;-65
2022/03/13 02:28:41;;;;;;;19.15;14.98;;;9.70;99.90;;;;;;5036785;28;20040;-65
2022/03/13 02:31:12;;;;;;;20.30;14.27;;;9.70;99.90;;;;;;5033671;28;20034;-66
2022/03/13 02:33:38;;;;;;;19.83;14.95;;;9.60;99.90;;;;;;5035947;28;20477;-66
2022/03/13 02:36:12;;;;;;;22.25;16.80;;;9.60;99.90;;;;;;5033641;28;20047;-66
2022/03/13 02:38:38;;;;;;;20.30;15.32;;;9.60;99.90;;;;;;5040933;28;20461;-66
2022/03/13 02:41:05;;;;;;;23.75;16.15;;;9.60;99.90;;;;;;5033098;28;20076;-66
2022/03/13 02:43:31;;;;;;;23.45;15.52;;;9.60;99.90;;;;;;5044147;28;20037;-66
2022/03/13 02:45:56;;;;;;;17.90;14.30;;;9.70;99.90;;;;;;5031867;28;20041;-66
2022/03/13 02:48:22;;;;;;;21.75;14.82;;;9.70;99.90;;;;;;5039479;28;20042;-66
2022/03/13 02:50:48;;;;;;;21.48;16.67;;;9.60;99.90;;;;;;5034167;28;20045;-66
2022/03/13 02:53:17;;;;;;;18.02;14.10;;;9.60;99.90;;;;;;5031996;28;20401;-66
2022/03/13 02:55:45;;;;;;;23.00;14.00;;;9.50;99.90;;;;;;5044347;28;20045;-66
2022/03/13 02:58:10;;;;;;;18.58;14.57;;;9.60;99.90;;;;;;5038854;28;20120;-66
2022/03/13 03:00:44;;;;;;;20.20;15.77;;;9.60;99.90;;;;;;5033426;28;20128;-66
2022/03/13 03:03:18;;;;;;;18.70;14.77;;;9.60;99.90;;;;;;5034384;28;20048;-66
2022/03/13 03:05:44;;;;;;;21.75;15.73;;;9.60;99.90;;;;;;5032873;28;20064;-66
2022/03/13 03:08:11;;;;;;;19.98;15.15;;;9.60;99.90;;;;;;5041755;28;20394;-66
2022/03/13 03:10:38;;;;;;;17.52;14.48;;;9.60;99.90;;;;;;5042509;28;20053;-66
2022/03/13 03:13:05;;;;;;;19.30;15.32;;;9.60;99.90;;;;;;5039752;28;20072;-66
2022/03/13 03:15:30;;;;;;;19.58;15.10;;;9.60;99.90;;;;;;5038971;28;20052;-66
2022/03/13 03:17:56;;;;;;;31.05;15.40;;;9.70;99.90;;;;;;5039128;28;20045;-66
2022/03/13 03:20:22;;;;;;;20.98;15.35;;;9.60;99.90;;;;;;5029372;28;20050;-66
2022/03/13 03:22:51;;;;;;;21.23;14.93;;;9.60;99.90;;;;;;5034832;28;20033;-66
2022/03/13 03:25:23;;;;;;;18.98;14.55;;;9.60;99.90;;;;;;5038089;28;20559;-66
2022/03/13 03:27:52;;;;;;;20.10;14.88;;;9.60;99.90;;;;;;5040802;28;20474;-66
2022/03/13 03:30:20;;;;;;;18.00;14.48;;;9.60;99.90;;;;;;5029821;28;20107;-66
2022/03/13 03:32:46;;;;;;;18.02;15.07;;;9.60;99.90;;;;;;5033673;28;20096;-66
2022/03/13 03:35:12;;;;;;;20.67;15.75;;;9.60;99.90;;;;;;5034406;28;20045;-66
2022/03/13 03:37:37;;;;;;;21.15;15.27;;;9.60;99.90;;;;;;5046918;28;20071;-66
2022/03/13 03:40:05;;;;;;;21.23;15.40;;;9.60;99.90;;;;;;5031475;28;20056;-66
2022/03/13 03:42:30;;;;;;;20.42;14.90;;;9.60;99.90;;;;;;5038187;28;20046;-66
2022/03/13 03:44:56;;;;;;;18.25;14.48;;;9.50;99.90;;;;;;5041162;28;20044;-66
2022/03/13 03:47:23;;;;;;;18.92;14.63;;;9.50;99.90;;;;;;5042782;28;20094;-66
2022/03/13 03:49:48;;;;;;;20.92;14.15;;;9.60;99.90;;;;;;5033490;28;20120;-66
2022/03/13 03:52:14;;;;;;;21.63;14.38;;;9.60;99.90;;;;;;5046555;28;20572;-66
2022/03/13 03:54:40;;;;;;;22.30;15.27;;;9.50;99.90;;;;;;5034672;28;20103;-65
2022/03/13 03:57:06;;;;;;;21.23;14.82;;;9.50;99.90;;;;;;5033481;28;20071;-65
2022/03/13 03:59:31;;;;;;;20.48;14.40;;;9.50;99.90;;;;;;5042615;28;20080;-65
2022/03/13 04:01:57;;;;;;;17.98;13.95;;;9.50;99.90;;;;;;5033665;28;20072;-65
2022/03/13 04:04:23;;;;;;;19.10;13.60;;;9.50;99.90;;;;;;5042796;28;20059;-65
2022/03/13 04:06:48;;;;;;;19.70;13.38;;;9.50;99.90;;;;;;5041274;28;20724;-65
2022/03/13 04:09:14;;;;;;;21.73;14.23;;;9.50;99.90;;;;;;5037455;28;20026;-65
2022/03/13 04:11:40;;;;;;;19.05;14.40;;;9.50;99.90;;;;;;5033281;28;20041;-65
2022/03/13 04:14:08;;;;;;;17.17;13.82;;;9.50;99.90;;;;;;5039034;28;20040;-65
2022/03/13 04:16:34;;;;;;;20.73;14.38;;;9.50;99.90;;;;;;5041171;28;20045;-65
2022/03/13 04:19:00;;;;;;;20.60;14.55;;;9.60;99.90;;;;;;5031918;28;20038;-66
2022/03/13 04:21:26;;;;;;;17.75;13.65;;;9.60;99.90;;;;;;5040872;28;20053;-65
2022/03/13 04:23:53;;;;;;;20.33;13.73;;;9.60;99.90;;;;;;5034386;28;20478;-65
2022/03/13 04:26:20;;;;;;;20.10;12.10;;;9.60;99.90;;;;;;5034933;28;20391;-65
2022/03/13 04:28:47;;;;;;;18.73;13.25;;;9.60;99.90;;;;;;5031375;28;20088;-66
2022/03/13 04:31:13;;;;;;;14.98;11.85;;;9.60;99.90;;;;;;5036337;28;20045;-66
2022/03/13 04:33:40;;;;;;;18.52;13.75;;;9.70;99.90;;;;;;5044413;28;20121;-66
2022/03/13 04:36:13;;;;;;;18.23;13.77;;;9.60;99.90;;;;;;5030638;28;20052;-66
2022/03/13 04:38:40;;;;;;;16.85;13.13;;;9.60;99.90;;;;;;5034319;28;20053;-66
2022/03/13 04:41:05;;;;;;;17.42;13.68;;;9.70;99.90;;;;;;5038956;28;20076;-65
2022/03/13 04:43:31;;;;;;;19.48;13.55;;;9.70;99.90;;;;;;5031554;28;20076;-65
2022/03/13 04:45:57;;;;;;;25.38;12.48;;;9.70;99.90;;;;;;5036751;28;20300;-66
2022/03/13 04:48:23;;;;;;;18.25;13.32;;;9.60;99.90;;;;;;5032526;28;20053;-65
2022/03/13 04:50:48;;;;;;;18.67;12.88;;;9.60;99.90;;;;;;5037120;28;20050;-65
2022/03/13 04:53:15;;;;;;;17.08;12.93;;;9.60;99.90;;;;;;5033244;28;20045;-66
2022/03/13 04:55:41;;;;;;;15.90;12.35;;;9.50;99.90;;;;;;5028367;28;20052;-65
2022/03/13 04:58:08;;;;;;;19.85;13.35;;;9.60;99.90;;;;;;5032109;28;20037;-65
2022/03/13 05:00:38;;;;;;;19.13;14.55;;;9.60;99.90;;;;;;5040608;28;20051;-65
2022/03/13 05:03:04;;;;;;;18.95;14.30;;;9.60;99.90;;;;;;5031532;28;20044;-66
2022/03/13 05:05:30;;;;;;;21.48;13.88;;;9.50;99.90;;;;;;5030478;28;20045;-66
2022/03/13 05:07:56;;;;;;;20.38;13.75;;;9.50;99.90;;;;;;5038892;28;20044;-66
2022/03/13 05:10:23;;;;;;;21.23;15.02;;;9.50;99.90;;;;;;5045327;28;20051;-66
2022/03/13 05:12:49;;;;;;;20.50;15.10;;;9.50;99.90;;;;;;5034344;28;20520;-66
2022/03/13 05:15:15;;;;;;;18.95;14.25;;;9.40;99.90;;;;;;5031478;28;20041;-66
2022/03/13 05:17:40;;;;;;;18.63;14.60;;;9.40;99.90;;;;;;5038587;28;20559;-66
2022/03/13 05:20:06;;;;;;;21.88;14.68;;;9.40;99.90;;;;;;5036055;28;20046;-66
2022/03/13 05:22:32;;;;;;;21.85;16.15;;;9.40;99.90;;;;;;5033501;28;20048;-66
2022/03/13 05:24:58;;;;;;;19.90;14.68;;;9.30;99.90;;;;;;5039915;28;20041;-66
2022/03/13 05:27:23;;;;;;;21.00;16.40;;;9.30;99.90;;;;;;5038459;28;20060;-66
2022/03/13 05:29:49;;;;;;;20.73;14.70;;;9.30;99.90;;;;;;5039393;28;20432;-66
2022/03/13 05:32:14;;;;;;;20.60;15.00;;;9.30;99.90;;;;;;5036541;28;20114;-65
2022/03/13 05:34:40;;;;;;;19.15;14.60;;;9.30;99.90;;;;;;5037223;28;20076;-65
2022/03/13 05:37:08;;;;;;;29.75;15.80;;;9.20;99.90;;;;;;5037444;28;20067;-66
2022/03/13 05:39:34;;;;;;;19.42;14.38;;;9.30;99.90;;;;;;5037882;28;20115;-66
2022/03/13 05:41:59;;;;;;;21.17;15.05;;;9.20;99.90;;;;;;5033294;28;20382;-66
2022/03/13 05:44:26;;;;;;;20.95;14.95;;;9.20;99.90;;;;;;5039825;28;20053;-65
2022/03/13 05:46:51;;;;;;;30.60;16.58;;;9.20;99.90;;;;;;5038635;28;20041;-65
2022/03/13 05:49:17;;;;;;;21.67;15.15;;;9.20;99.90;;;;;;5027122;28;20131;-66
2022/03/13 05:51:43;;;;;;;25.70;16.10;;;9.20;99.90;;;;;;5035342;28;20084;-65
2022/03/13 05:54:10;;;;;;;22.80;15.57;;;9.20;99.90;;;;;;5028404;28;20060;-65
2022/03/13 05:56:36;;;;;;;20.98;15.65;;;9.20;99.90;;;;;;5031059;28;20473;-66
2022/03/13 05:59:01;;;;;;;20.73;15.13;;;9.20;99.90;;;;;;5036425;28;20068;-66
2022/03/13 06:01:27;;;;;;;20.77;15.88;;;9.20;99.90;;;;;;5043940;28;21512;-66
2022/03/13 06:03:53;;;;;;;19.30;15.10;;;9.20;99.90;;;;;;5032619;28;20459;-66
2022/03/13 06:06:20;;;;;;;20.48;15.05;;;9.20;99.90;;;;;;5038236;28;20056;-66
2022/03/13 06:08:46;;;;;;;21.58;17.17;;;9.20;99.90;;;;;;5040302;28;20142;-66
2022/03/13 06:11:12;;;;;;;22.20;16.17;;;9.10;99.90;;;;;;5040620;28;20036;-65
2022/03/13 06:13:38;;;;;;;23.88;15.85;;;9.10;99.90;;;;;;5040999;28;20045;-66
2022/03/13 06:16:04;;;;;;;23.85;16.58;;;9.10;99.90;;;;;;5036147;28;20090;-66
2022/03/13 06:18:34;;;;;;;21.38;15.73;;;9.20;99.90;;;;;;5037809;28;20044;-66
2022/03/13 06:21:01;;;;;;;20.67;14.80;;;9.20;99.90;;;;;;5042009;28;20048;-66
2022/03/13 06:23:29;;;;;;;22.98;16.85;;;9.20;99.90;;;;;;5033334;28;20045;-66
2022/03/13 06:25:58;;;;;;;22.17;15.80;;;9.20;99.90;;;;;;5047101;28;20194;-66
2022/03/13 06:28:23;;;;;;;23.20;16.35;;;9.20;99.90;;;;;;5042293;28;20037;-66
2022/03/13 06:30:49;;;;;;;20.77;15.93;;;9.20;99.90;;;;;;5036932;28;20048;-66
2022/03/13 06:33:15;;;;;;;20.08;14.80;;;9.20;99.90;;;;;;5038622;28;20144;-66
2022/03/13 06:35:40;;;;;;;24.98;16.75;;;9.20;99.90;;;;;;5040276;28;20068;-66
2022/03/13 06:38:06;;;;;;;21.20;16.10;;;9.20;99.90;;;;;;5031657;28;20481;-66
2022/03/13 06:40:31;;;;;;;31.88;19.42;;;9.20;99.90;;;;;;5034706;28;20100;-66
2022/03/13 06:42:58;;;;;;;21.38;17.55;;;9.20;99.90;;;;;;5043937;28;20052;-66
2022/03/13 06:45:24;;;;;;;22.13;17.58;;;9.20;99.90;;;;;;5041356;28;20051;-65
2022/03/13 06:47:50;;;;;;;19.92;14.23;;;9.20;99.90;;;;;;5038941;28;20041;-65
2022/03/13 06:50:18;;;;;;;30.02;19.63;;;9.30;99.90;;;;;;5033306;28;20040;-65
2022/03/13 06:52:45;;;;;;;22.38;16.98;;;9.20;99.90;;;;;;5035719;28;20488;-65
2022/03/13 06:55:12;;;;;;;24.38;16.92;;;9.30;99.90;;;;;;5031881;28;20059;-65
2022/03/13 06:57:41;;;;;;;21.40;14.93;;;9.20;99.90;;;;;;5042316;28;20041;-65
2022/03/13 07:00:08;;;;;;;21.10;15.07;;;9.30;99.90;;;;;;5033795;28;20390;-66
2022/03/13 07:02:34;;;;;;;24.05;16.92;;;9.30;99.90;;;;;;5038737;28;20056;-65
2022/03/13 07:04:59;;;;;;;27.88;16.83;;;9.30;99.90;;;;;;5042527;28;20037;-65
2022/03/13 07:07:25;;;;;;;27.08;17.45;;;9.40;99.90;;;;;;5042890;28;20041;-65
2022/03/13 07:09:52;;;;;;;21.85;16.65;;;9.40;99.90;;;;;;5030440;28;20041;-65
2022/03/13 07:12:18;;;;;;;20.85;15.63;;;9.40;99.90;;;;;;5041699;28;20041;-65
2022/03/13 07:14:46;;;;;;;28.48;20.67;;;9.40;99.90;;;;;;5043600;28;20069;-65
2022/03/13 07:17:13;;;;;;;22.77;17.52;;;9.40;99.90;;;;;;5037433;28;20148;-65
2022/03/13 07:19:40;;;;;;;21.45;14.98;;;9.50;99.90;;;;;;5038683;28;20462;-65
2022/03/13 07:22:07;;;;;;;18.75;15.13;;;9.50;99.90;;;;;;5044613;28;20152;-66
2022/03/13 07:24:32;;;;;;;19.17;14.70;;;9.50;99.90;;;;;;5043360;28;20049;-66
2022/03/13 07:26:58;;;;;;;20.92;14.63;;;9.60;99.90;;;;;;5035879;28;20037;-66
2022/03/13 07:29:23;;;;;;;20.48;14.52;;;9.70;99.90;;;;;;5040008;28;20107;-66
2022/03/13 07:31:49;;;;;;;23.60;15.57;;;9.60;99.90;;;;;;5031265;28;20050;-66
2022/03/13 07:34:14;;;;;;;21.02;15.70;;;9.60;99.90;;;;;;5029983;28;20038;-65
2022/03/13 07:36:40;;;;;;;19.85;13.98;;;9.60;99.90;;;;;;5032210;28;20053;-66
2022/03/13 07:39:06;;;;;;;20.45;15.80;;;9.70;99.90;;;;;;5028702;28;20045;-65
2022/03/13 07:41:31;;;;;;;19.98;14.02;;;9.60;99.90;;;;;;5039863;28;20099;-66
2022/03/13 07:43:57;;;;;;;33.55;19.42;;;9.60;99.90;;;;;;5035134;28;20111;-66
2022/03/13 07:46:23;;;;;;;40.63;21.60;;;9.60;99.90;;;;;;5031665;28;20049;-66
2022/03/13 07:48:48;;;;;;;19.42;14.32;;;9.60;99.90;;;;;;5044970;28;20128;-66
2022/03/13 07:51:14;;;;;;;16.05;12.60;;;9.60;99.90;;;;;;5031325;28;20034;-66
2022/03/13 07:53:40;;;;;;;20.33;14.55;;;9.60;99.90;;;;;;5036852;28;20098;-66
2022/03/13 07:56:05;;;;;;;17.88;14.05;;;9.60;99.90;;;;;;5035894;28;20043;-64
2022/03/13 07:58:32;;;;;;;20.33;15.45;;;9.60;99.90;;;;;;5036180;28;20044;-63
2022/03/13 08:00:58;;;;;;;21.35;14.85;;;9.60;99.90;;;;;;5032071;28;20052;-63
2022/03/13 08:03:29;;;;;;;21.98;13.45;;;9.60;99.90;;;;;;5033998;28;20041;-63
2022/03/13 08:05:55;;;;;;;18.27;13.90;;;9.70;99.90;;;;;;5032593;28;20080;-65
2022/03/13 08:08:21;;;;;;;21.63;14.07;;;9.70;99.90;;;;;;5040234;28;20073;-64
2022/03/13 08:10:46;;;;;;;19.60;14.82;;;9.80;99.90;;;;;;5037786;28;20038;-65
2022/03/13 08:13:12;;;;;;;21.52;15.48;;;9.70;99.90;;;;;;5035156;28;20045;-64
2022/03/13 08:15:38;;;;;;;20.98;15.90;;;9.70;99.90;;;;;;5040553;28;20132;-64
2022/03/13 08:18:04;;;;;;;20.52;15.32;;;9.70;99.90;;;;;;5030400;28;20469;-64
2022/03/13 08:20:29;;;;;;;18.55;13.50;;;9.70;99.90;;;;;;5032835;28;20073;-64
2022/03/13 08:22:55;;;;;;;20.30;13.07;;;9.70;99.90;;;;;;5047289;28;20036;-63
2022/03/13 08:25:21;;;;;;;21.90;14.52;;;9.70;99.90;;;;;;5043935;28;20536;-64
2022/03/13 08:27:48;;;;;;;17.23;13.27;;;9.70;99.90;;;;;;5038959;28;20033;-64
2022/03/13 08:30:14;;;;;;;19.38;13.65;;;9.80;99.90;;;;;;5032780;28;20111;-64
2022/03/13 08:32:40;;;;;;;21.77;13.23;;;9.90;99.90;;;;;;5034456;28;20052;-64
2022/03/13 08:35:09;;;;;;;20.98;13.98;;;9.90;99.90;;;;;;5036311;28;20037;-65
2022/03/13 08:37:36;;;;;;;20.80;14.32;;;10.00;99.90;;;;;;5040745;28;20033;-64
2022/03/13 08:40:05;;;;;;;18.35;13.02;;;10.20;99.60;;;;;;5040721;28;20076;-65
2022/03/13 08:42:32;;;;;;;23.98;12.30;;;10.30;99.00;;;;;;5033663;28;20038;-64
2022/03/13 08:44:59;;;;;;;25.88;16.67;;;10.60;99.50;;;;;;5032193;28;20037;-65
2022/03/13 08:47:25;;;;;;;27.00;12.88;;;10.70;98.80;;;;;;5031609;28;20051;-65
2022/03/13 08:49:50;;;;;;;24.90;16.85;;;10.70;98.00;;;;;;5042589;28;20053;-64
2022/03/13 08:52:17;;;;;;;22.80;16.98;;;10.80;98.30;;;;;;5043103;28;20075;-64
2022/03/13 08:54:42;;;;;;;20.33;14.50;;;10.90;97.90;;;;;;5038165;28;20037;-65
2022/03/13 08:57:08;;;;;;;23.15;16.15;;;11.00;97.50;;;;;;5042361;28;20079;-65
2022/03/13 08:59:36;;;;;;;24.17;14.27;;;11.00;96.90;;;;;;5039421;28;20497;-65
2022/03/13 09:02:02;;;;;;;18.40;13.20;;;11.00;97.10;;;;;;5034918;28;20048;-65
2022/03/13 09:04:28;;;;;;;20.63;15.55;;;10.90;96.50;;;;;;5034655;28;20041;-65
2022/03/13 09:06:54;;;;;;;15.88;12.90;;;10.90;96.90;;;;;;5035682;28;20133;-66
2022/03/13 09:09:20;;;;;;;21.17;12.55;;;11.00;97.80;;;;;;5027954;28;20073;-65
2022/03/13 09:11:47;;;;;;;20.05;13.30;;;10.90;97.10;;;;;;5036102;28;20052;-65
2022/03/13 09:14:13;;;;;;;21.80;15.63;;;10.90;96.90;;;;;;5027939;28;20478;-65
2022/03/13 09:16:42;;;;;;;29.67;19.30;;;10.90;97.30;;;;;;5036441;28;20083;-65
2022/03/13 09:19:08;;;;;;;17.92;13.75;;;10.90;97.10;;;;;;5027913;28;20041;-65
2022/03/13 09:21:34;;;;;;;18.27;12.80;;;10.80;96.70;;;;;;5037558;28;20056;-65
2022/03/13 09:24:02;;;;;;;21.70;14.80;;;10.80;97.40;;;;;;5032360;28;20528;-65
2022/03/13 09:26:28;;;;;;;20.17;13.57;;;10.80;97.00;;;;;;5035760;28;20041;-65
2022/03/13 09:28:54;;;;;;;18.88;14.32;;;10.80;97.00;;;;;;5033447;28;20048;-65
2022/03/13 09:31:19;;;;;;;20.80;12.43;;;10.90;97.30;;;;;;5038294;28;20041;-65
2022/03/13 09:33:45;;;;;;;17.27;12.48;;;11.10;97.70;;;;;;5030278;28;20053;-65
2022/03/13 09:36:11;;;;;;;22.42;13.27;;;11.70;96.80;;;;;;5044716;28;20075;-65
2022/03/13 09:38:36;;;;;;;17.48;13.30;;;12.10;96.10;;;;;;5034785;28;20485;-65
2022/03/13 09:41:02;;;;;;;17.52;13.43;;;12.70;95.10;;;;;;5029095;28;20045;-65
2022/03/13 09:43:28;;;;;;;17.13;13.85;;;13.20;94.80;;;;;;5041862;28;20046;-65
2022/03/13 09:45:53;;;;;;;16.15;12.35;;;13.40;94.20;;;;;;5035334;28;20049;-65
2022/03/13 09:48:21;;;;;;;17.70;12.52;;;13.70;93.40;;;;;;5041520;28;20044;-65
2022/03/13 09:50:47;;;;;;;21.08;13.85;;;14.00;93.10;;;;;;5035727;28;20465;-65
2022/03/13 09:53:13;;;;;;;19.40;13.85;;;14.50;92.60;;;;;;5037277;28;20045;-66
2022/03/13 09:55:39;;;;;;;20.17;13.82;;;14.80;92.50;;;;;;5032383;28;20080;-65
2022/03/13 09:58:08;;;;;;;20.85;12.52;;;14.50;91.10;;;;;;5042776;28;20076;-65
2022/03/13 10:00:35;;;;;;;16.75;12.90;;;14.30;91.70;;;;;;5035775;28;20037;-65
2022/03/13 10:03:05;;;;;;;14.65;11.52;;;13.90;91.80;;;;;;5041360;28;20041;-65
2022/03/13 10:05:46;;;;;;;17.98;13.10;;;13.60;92.60;;;;;;5037896;28;20077;-65
2022/03/13 10:08:13;;;;;;;19.17;12.50;;;13.40;92.00;;;;;;5031126;28;20037;-65
2022/03/13 10:10:47;;;;;;;18.10;12.73;;;13.10;92.00;;;;;;5032740;28;20056;-65
2022/03/13 10:13:15;;;;;;;17.05;11.75;;;12.90;92.50;;;;;;5036770;28;20107;-65
2022/03/13 10:15:48;;;;;;;20.98;13.57;;;12.90;93.50;;;;;;5040981;28;20037;-65
2022/03/13 10:18:19;;;;;;;18.98;13.02;;;12.80;93.40;;;;;;5031511;28;20045;-65
2022/03/13 10:20:46;;;;;;;18.77;13.02;;;12.70;92.90;;;;;;5036343;28;20478;-65
2022/03/13 10:23:16;;;;;;;16.38;13.18;;;12.70;93.70;;;;;;5030625;28;20041;-65
2022/03/13 10:25:43;;;;;;;19.45;12.82;;;12.60;92.90;;;;;;5031520;28;20045;-65
2022/03/13 10:28:22;;;;;;;20.77;13.55;;;12.60;93.40;;;;;;5033498;28;20127;-65
2022/03/13 10:31:00;;;;;;;19.38;12.90;;;12.70;95.10;;;;;;5040036;28;20036;-65
2022/03/13 10:33:43;;;;;;;15.98;12.45;;;12.70;93.70;;;;;;5036017;28;20413;-66
2022/03/13 10:36:11;;;;;;;19.50;13.10;;;12.70;95.00;;;;;;5034130;28;20056;-65
2022/03/13 10:38:37;;;;;;;17.70;12.65;;;12.80;93.90;;;;;;5030830;28;20385;-65
2022/03/13 10:41:12;;;;;;;18.45;14.52;;;12.80;93.20;;;;;;5031090;28;20150;-65
2022/03/13 10:43:54;;;;;;;18.75;12.98;;;12.90;93.40;;;;;;5042445;28;20041;-65
2022/03/13 10:46:27;;;;;;;16.10;13.00;;;13.20;94.00;;;;;;5031469;28;20065;-65
2022/03/13 10:48:54;;;;;;;;;;;13.50;93.50;;;;;;5035178;28;20049;-65
2022/03/13 10:51:40;;;;;;;23.83;13.52;;;13.80;93.10;;;;;;5037375;28;19921;-65
2022/03/13 10:54:06;;;;;;;15.88;12.68;;;14.10;92.20;;;;;;5041906;28;20064;-65
2022/03/13 10:56:32;;;;;;;20.40;13.18;;;14.40;92.50;;;;;;5033338;28;20041;-66
2022/03/13 10:58:59;;;;;;;19.08;13.40;;;14.70;92.50;;;;;;5039133;28;20040;-65
2022/03/13 11:01:27;;;;;;;20.17;13.43;;;14.80;92.30;;;;;;5034696;28;20048;-65
2022/03/13 11:03:55;;;;;;;16.83;12.90;;;15.00;92.00;;;;;;5031732;28;20056;-66
2022/03/13 11:06:25;;;;;;;18.38;13.73;;;15.10;91.50;;;;;;5034582;28;20045;-65
2022/03/13 11:08:54;;;;;;;20.60;14.02;;;15.40;91.70;;;;;;5036507;28;20175;-65
2022/03/13 11:11:21;;;;;;;20.90;12.25;;;15.50;91.30;;;;;;5033186;28;20079;-65
2022/03/13 11:13:52;;;;;;;22.55;13.52;;;15.20;91.40;;;;;;5048408;28;20045;-66
2022/03/13 11:16:26;;;;;;;20.10;14.73;;;15.00;91.80;;;;;;5029965;28;20042;-65
2022/03/13 11:18:57;;;;;;;16.48;13.10;;;14.90;92.00;;;;;;5030718;28;20061;-66
2022/03/13 11:21:23;;;;;;;18.85;13.98;;;14.80;92.10;;;;;;5039513;28;20056;-66
2022/03/13 11:23:50;;;;;;;16.80;12.77;;;14.60;92.30;;;;;;5033507;28;20520;-66
2022/03/13 11:26:17;;;;;;;18.83;13.88;;;14.60;92.40;;;;;;5036939;28;20128;-65
2022/03/13 11:28:45;;;;;;;18.80;13.88;;;14.50;92.40;;;;;;5033296;28;20106;-65
2022/03/13 11:31:34;;;;;;;17.23;13.35;;;14.50;92.90;;;;;;5033846;28;20718;-65
2022/03/13 11:34:14;;;;;;;16.38;13.93;;;14.60;93.00;;;;;;5037951;28;20128;-65
2022/03/13 11:36:58;;;;;;;18.95;13.88;;;14.90;92.50;;;;;;5030165;28;20050;-65
2022/03/13 11:39:26;;;;;;;17.20;13.13;;;15.40;91.90;;;;;;5032469;28;20080;-65
2022/03/13 11:41:51;;;;;;;19.45;13.40;;;15.70;92.40;;;;;;5032927;28;20045;-66
2022/03/13 11:44:28;;;;;;;20.35;13.20;;;15.70;92.20;;;;;;5043423;28;20044;-66
2022/03/13 11:46:56;;;;;;;19.45;14.45;;;15.40;91.70;;;;;;5029379;28;20049;-65
2022/03/13 11:49:31;;;;;;;22.08;15.60;;;15.40;91.50;;;;;;5037815;28;20063;-65
2022/03/13 11:52:25;;;;;;;16.02;13.07;;;15.50;91.20;;;;;;5035206;28;20061;-65
2022/03/13 11:54:55;;;;;;;19.90;14.50;;;15.50;92.40;;;;;;5031288;28;20049;-65
2022/03/13 11:57:26;;;;;;;19.55;15.90;;;15.80;91.60;;;;;;5028223;28;20060;-65
2022/03/13 12:00:11;;;;;;;22.17;14.65;;;16.00;91.40;;;;;;5031411;28;20128;-65
2022/03/13 12:02:43;;;;;;;19.35;13.25;;;15.90;91.30;;;;;;5028725;28;20107;-65
2022/03/13 12:05:31;;;;;;;17.73;13.43;;;15.80;91.60;;;;;;5034627;28;20045;-65
2022/03/13 12:08:08;;;;;;;15.05;12.07;;;15.70;91.20;;;;;;5030460;28;20045;-65
2022/03/13 12:10:41;;;;;;;17.48;12.52;;;15.60;91.70;;;;;;5030067;28;20072;-65
2022/03/13 12:13:12;;;;;;;17.67;12.88;;;15.90;91.40;;;;;;5029545;28;20045;-65
2022/03/13 12:15:40;;;;;;;17.73;12.95;;;16.10;91.40;;;;;;5033443;28;20091;-65
2022/03/13 12:18:27;;;;;;;17.40;12.63;;;16.20;91.10;;;;;;5029204;28;20045;-65
2022/03/13 12:20:59;;;;;;;16.23;12.55;;;16.10;90.30;;;;;;5032709;28;20064;-65
2022/03/13 12:23:26;;;;;;;17.38;12.85;;;16.40;91.40;;;;;;5034201;28;20080;-65
2022/03/13 12:25:54;;;;;;;16.15;12.45;;;16.80;90.80;;;;;;5028391;28;20480;-65
2022/03/13 12:28:30;;;;;;;17.25;13.15;;;17.30;91.00;;;;;;5033942;28;20090;-65
2022/03/13 12:31:03;;;;;;;22.02;13.82;;;17.30;89.80;;;;;;5037529;28;20128;-65
2022/03/13 12:33:33;;;;;;;15.10;12.15;;;17.40;89.80;;;;;;5031686;28;20053;-65
2022/03/13 12:36:01;;;;;;;13.50;10.90;;;17.60;89.70;;;;;;5028346;28;20592;-65